createdAt,value
2023-02-23T00:03:00.297Z,1.80
2023-02-23T00:08:02.802Z,1.80
2023-02-23T00:13:06.285Z,1.70
2023-02-23T00:18:09.621Z,1.80
2023-02-23T00:35:25.031Z,1.60
2023-02-23T00:45:47.199Z,1.50
2023-02-23T00:51:06.957Z,1.60
2023-02-23T01:01:52.562Z,1.60
2023-02-23T01:06:56.839Z,1.60
2023-02-23T01:12:02.073Z,1.50
2023-02-23T01:17:22.806Z,1.50
2023-02-23T01:27:52.571Z,1.60
2023-02-23T01:32:55.000Z,1.40
2023-02-23T01:43:26.018Z,1.40
2023-02-23T01:48:35.319Z,1.30
2023-02-23T01:54:02.435Z,1.30
2023-02-23T01:59:07.931Z,1.40
2023-02-23T02:04:16.785Z,1.20
2023-02-23T02:09:25.600Z,1.40
2023-02-23T02:14:30.945Z,1.30
2023-02-23T02:20:00.825Z,1.40
2023-02-23T02:25:32.066Z,1.30
2023-02-23T02:30:59.242Z,1.20
2023-02-23T02:36:23.802Z,1.20
2023-02-23T02:41:53.384Z,1.00
2023-02-23T02:47:01.135Z,1.20
2023-02-23T02:52:19.054Z,1.10
2023-02-23T02:57:25.783Z,1.20
2023-02-23T03:02:48.114Z,1.10
2023-02-23T03:08:18.249Z,1.20
2023-02-23T03:14:01.591Z,1.20
2023-02-23T03:19:55.439Z,1.40
2023-02-23T03:25:33.673Z,1.30
2023-02-23T03:31:02.006Z,1.30
2023-02-23T03:36:33.827Z,1.30
2023-02-23T03:42:00.907Z,1.30
2023-02-23T03:47:24.808Z,1.50
2023-02-23T03:52:57.487Z,1.20
2023-02-23T03:58:21.501Z,1.30
2023-02-23T04:16:01.946Z,1.20
2023-02-23T04:21:05.622Z,1.20
2023-02-23T04:26:08.288Z,1.20
2023-02-23T04:31:10.567Z,1.30
2023-02-23T04:36:12.933Z,1.20
2023-02-23T04:41:15.268Z,1.20
2023-02-23T04:46:17.656Z,1.20
2023-02-23T04:51:20.147Z,1.30
2023-02-23T04:56:22.579Z,1.30
2023-02-23T05:01:25.829Z,1.30
2023-02-23T05:06:28.419Z,1.20
2023-02-23T05:11:30.793Z,1.20
2023-02-23T05:16:33.683Z,1.10
2023-02-23T05:21:36.014Z,1.10
2023-02-23T05:26:39.097Z,1.10
2023-02-23T05:31:41.859Z,1.10
2023-02-23T05:36:44.190Z,1.10
2023-02-23T05:41:46.734Z,1.20
2023-02-23T05:46:49.059Z,1.00
2023-02-23T05:51:51.707Z,1.00
2023-02-23T05:56:54.060Z,1.00
2023-02-23T06:01:56.340Z,1.10
2023-02-23T06:06:59.268Z,0.90
2023-02-23T06:12:01.512Z,0.90
2023-02-23T06:17:04.160Z,0.90
2023-02-23T06:22:06.475Z,1.00
2023-02-23T06:27:09.064Z,1.10
2023-02-23T06:32:11.869Z,1.20
2023-02-23T06:37:21.297Z,1.20
2023-02-23T06:42:23.872Z,1.30
2023-02-23T06:47:26.256Z,1.30
2023-02-23T06:52:28.874Z,1.40
2023-02-23T06:57:31.298Z,1.60
2023-02-23T07:02:37.414Z,1.50
2023-02-23T07:07:39.969Z,1.50
2023-02-23T07:12:44.608Z,1.60
2023-02-23T07:17:49.115Z,1.50
2023-02-23T07:22:52.312Z,1.70
2023-02-23T07:27:55.274Z,1.80
2023-02-23T07:32:57.813Z,1.90
2023-02-23T07:38:00.580Z,2.00
2023-02-23T07:43:05.549Z,2.00
2023-02-23T07:48:11.307Z,2.20
2023-02-23T07:53:14.368Z,2.50
2023-02-23T07:58:16.843Z,2.40
2023-02-23T08:03:19.313Z,2.50
2023-02-23T08:08:22.059Z,2.70
2023-02-23T08:13:24.614Z,2.80
2023-02-23T08:18:27.910Z,2.80
2023-02-23T08:23:34.635Z,2.80
2023-02-23T08:28:37.842Z,2.90
2023-02-23T08:33:40.478Z,3.00
2023-02-23T08:38:43.076Z,3.20
2023-02-23T08:43:45.640Z,3.30
2023-02-23T08:48:50.662Z,3.50
2023-02-23T08:53:53.123Z,3.60
2023-02-23T08:58:56.306Z,3.70
2023-02-23T09:03:59.727Z,3.70
2023-02-23T09:09:02.168Z,3.90
2023-02-23T09:14:04.574Z,4.10
2023-02-23T09:19:06.819Z,4.40
2023-02-23T09:24:09.066Z,4.60
2023-02-23T09:29:11.762Z,4.80
2023-02-23T09:34:14.095Z,5.00
2023-02-23T09:39:17.154Z,5.20
2023-02-23T09:44:37.878Z,5.20
2023-02-23T09:49:42.760Z,5.20
2023-02-23T09:54:45.478Z,5.50
2023-02-23T09:59:47.773Z,5.60
2023-02-23T10:04:57.873Z,5.80
2023-02-23T10:10:17.874Z,6.00
2023-02-23T10:15:46.194Z,6.20
2023-02-23T10:21:12.027Z,6.40
2023-02-23T10:26:25.198Z,6.70
2023-02-23T10:31:41.471Z,7.00
2023-02-23T10:36:58.612Z,7.40
2023-02-23T10:42:06.252Z,7.50
2023-02-23T10:47:14.699Z,7.60
2023-02-23T10:52:28.513Z,7.90
2023-02-23T10:57:34.114Z,8.10
2023-02-23T11:02:36.776Z,8.30
2023-02-23T11:07:39.401Z,8.50
2023-02-23T11:12:44.605Z,8.40
2023-02-23T11:17:46.899Z,8.50
2023-02-23T11:22:49.212Z,8.70
2023-02-23T11:27:53.936Z,9.10
2023-02-23T11:32:59.736Z,9.10
2023-02-23T11:38:17.297Z,9.20
2023-02-23T11:43:21.940Z,9.30
2023-02-23T11:48:51.303Z,9.40
2023-02-23T11:53:53.730Z,9.60
2023-02-23T11:59:01.415Z,9.60
2023-02-23T12:04:04.024Z,9.80
2023-02-23T12:09:28.023Z,10.10
2023-02-23T12:14:40.382Z,10.10
2023-02-23T12:19:52.107Z,10.40
2023-02-23T12:24:59.183Z,10.50
2023-02-23T12:30:23.342Z,10.50
2023-02-23T12:35:45.620Z,10.40
2023-02-23T12:40:50.491Z,10.40
2023-02-23T12:46:02.356Z,10.50
2023-02-23T12:51:14.948Z,10.30
2023-02-23T12:56:23.913Z,10.50
2023-02-23T13:01:37.861Z,10.40
2023-02-23T13:07:06.286Z,10.50
2023-02-23T13:12:30.347Z,10.60
2023-02-23T13:17:58.093Z,10.60
2023-02-23T13:23:09.508Z,10.60
2023-02-23T13:28:28.916Z,10.80
2023-02-23T13:33:43.576Z,11.20
2023-02-23T13:39:18.952Z,11.30
2023-02-23T13:44:38.816Z,11.40
2023-02-23T13:49:56.990Z,11.50
2023-02-23T13:55:03.221Z,11.40
2023-02-23T14:00:20.528Z,11.40
2023-02-23T14:05:25.481Z,11.40
2023-02-23T14:10:36.699Z,11.60
2023-02-23T14:15:38.955Z,11.70
2023-02-23T14:20:44.029Z,11.80
2023-02-23T14:25:50.463Z,11.90
2023-02-23T14:31:13.817Z,12.00
2023-02-23T14:36:22.171Z,11.90
2023-02-23T14:41:41.273Z,11.40
2023-02-23T14:46:59.972Z,11.00
2023-02-23T14:52:30.252Z,11.00
2023-02-23T14:57:36.545Z,11.40
2023-02-23T15:02:49.282Z,11.60
2023-02-23T15:07:59.697Z,11.80
2023-02-23T15:13:13.719Z,11.50
2023-02-23T15:18:36.967Z,11.60
2023-02-23T15:23:39.849Z,11.70
2023-02-23T15:28:42.471Z,11.50
2023-02-23T15:33:44.952Z,11.30
2023-02-23T15:38:50.723Z,11.10
2023-02-23T15:43:53.235Z,10.90
2023-02-23T15:49:00.813Z,10.50
2023-02-23T15:54:14.094Z,10.40
2023-02-23T15:59:26.065Z,10.20
2023-02-23T16:04:32.733Z,10.00
2023-02-23T16:09:38.489Z,9.80
2023-02-23T16:14:55.269Z,9.60
2023-02-23T16:20:18.860Z,9.50
2023-02-23T16:25:25.065Z,9.10
2023-02-23T16:30:34.299Z,8.90
2023-02-23T16:35:47.570Z,8.90
2023-02-23T16:40:49.873Z,8.80
2023-02-23T16:45:53.571Z,9.00
2023-02-23T16:50:55.890Z,8.90
2023-02-23T16:56:01.023Z,8.90
2023-02-23T17:01:03.429Z,9.00
2023-02-23T17:06:06.429Z,9.00
2023-02-23T17:11:08.900Z,9.00
2023-02-23T17:16:12.889Z,8.80
2023-02-23T17:21:16.106Z,8.70
2023-02-23T17:26:23.487Z,8.60
2023-02-23T17:31:27.618Z,8.70
2023-02-23T17:36:30.253Z,8.60
2023-02-23T17:41:34.288Z,8.60
2023-02-23T17:46:37.021Z,8.60
2023-02-23T17:51:39.284Z,8.50
2023-02-23T17:56:41.608Z,8.40
2023-02-23T18:01:43.884Z,8.20
2023-02-23T18:06:46.604Z,8.20
2023-02-23T18:11:48.852Z,8.30
2023-02-23T18:16:51.183Z,8.20
2023-02-23T18:21:56.080Z,8.10
2023-02-23T18:27:02.007Z,8.10
2023-02-23T18:32:06.574Z,8.20
2023-02-23T18:37:10.212Z,8.20
2023-02-23T18:42:12.575Z,8.20
2023-02-23T18:47:15.417Z,8.00
2023-02-23T18:52:17.634Z,8.00
2023-02-23T18:57:19.936Z,7.90
2023-02-23T19:02:25.210Z,7.80
2023-02-23T19:07:27.629Z,7.60
2023-02-23T19:12:30.732Z,7.70
2023-02-23T19:17:33.474Z,7.70
2023-02-23T19:22:35.738Z,7.70
2023-02-23T19:27:38.717Z,7.80
2023-02-23T19:32:41.479Z,7.90
2023-02-23T19:37:52.262Z,7.70
2023-02-23T19:42:54.510Z,7.80
2023-02-23T19:47:57.110Z,7.70
2023-02-23T19:52:59.376Z,7.60
2023-02-23T19:58:01.782Z,7.70
2023-02-23T20:03:06.588Z,7.80
2023-02-23T20:08:09.779Z,7.90
2023-02-23T20:13:12.055Z,7.70
2023-02-23T20:18:14.720Z,7.60
2023-02-23T20:23:17.336Z,7.50
2023-02-23T20:28:19.598Z,7.50
2023-02-23T20:33:21.837Z,7.30
2023-02-23T20:38:24.136Z,7.30
2023-02-23T20:43:26.460Z,7.10
2023-02-23T20:48:31.527Z,7.30
2023-02-23T20:53:34.320Z,7.20
2023-02-23T20:58:36.933Z,7.20
2023-02-23T21:03:39.618Z,7.20
2023-02-23T21:08:42.687Z,7.20
2023-02-23T21:13:45.564Z,7.20
2023-02-23T21:18:53.794Z,7.30
2023-02-23T21:23:56.102Z,7.40
2023-02-23T21:28:58.480Z,7.40
2023-02-23T21:34:00.738Z,7.50
2023-02-23T21:39:04.085Z,7.50
2023-02-23T21:44:07.463Z,7.50
2023-02-23T21:49:10.191Z,7.40
2023-02-23T21:54:12.459Z,7.50
2023-02-23T21:59:14.709Z,7.60
2023-02-23T22:04:16.947Z,7.50
2023-02-23T22:09:19.243Z,7.60
2023-02-23T22:14:22.251Z,7.60
2023-02-23T22:19:24.641Z,7.60
2023-02-23T22:24:26.867Z,7.60
2023-02-23T22:29:29.255Z,7.60
2023-02-23T22:34:31.540Z,7.70
2023-02-23T22:39:33.773Z,7.80
2023-02-23T22:44:38.966Z,8.00
2023-02-23T22:49:41.833Z,7.80
2023-02-23T22:54:46.220Z,7.70
2023-02-23T22:59:59.838Z,7.90
2023-02-23T23:05:02.603Z,8.00
2023-02-23T23:10:05.999Z,7.80
2023-02-23T23:15:14.772Z,7.90
2023-02-23T23:20:25.791Z,7.90
2023-02-23T23:25:29.561Z,8.00
2023-02-23T23:30:35.276Z,8.00
2023-02-23T23:35:38.104Z,7.90
2023-02-23T23:40:46.858Z,7.90
2023-02-23T23:45:51.695Z,7.90
2023-02-23T23:50:56.361Z,7.90
2023-02-23T23:56:05.305Z,8.00
